createdAt,value
2019-02-23T00:00:09.123Z,8.63
2019-02-23T00:02:38.452Z,8.87
2019-02-23T00:05:07.771Z,8.87
2019-02-23T00:07:37.148Z,8.80
2019-02-23T00:10:07.332Z,9.57
2019-02-23T00:12:36.627Z,10.33
2019-02-23T00:15:06.184Z,8.70
2019-02-23T00:17:35.523Z,9.90
2019-02-23T00:20:05.188Z,9.47
2019-02-23T00:22:34.626Z,10.17
2019-02-23T00:25:04.004Z,10.13
2019-02-23T00:27:33.366Z,10.23
2019-02-23T00:30:02.716Z,10.70
2019-02-23T00:32:32.047Z,10.50
2019-02-23T00:35:01.360Z,10.70
2019-02-23T00:37:30.640Z,10.77
2019-02-23T00:39:59.944Z,11.17
2019-02-23T00:42:29.250Z,10.43
2019-02-23T00:44:58.596Z,11.03
2019-02-23T00:47:27.868Z,10.33
2019-02-23T00:49:57.188Z,11.07
2019-02-23T00:52:26.562Z,10.73
2019-02-23T00:54:55.864Z,11.93
2019-02-23T00:57:25.302Z,10.73
2019-02-23T00:59:54.551Z,11.57
2019-02-23T01:02:23.925Z,11.83
2019-02-23T01:04:53.223Z,10.57
2019-02-23T01:07:22.531Z,11.60
2019-02-23T01:09:51.865Z,11.90
2019-02-23T01:12:21.260Z,12.13
2019-02-23T01:14:52.965Z,11.80
2019-02-23T01:17:22.321Z,11.77
2019-02-23T01:19:51.592Z,11.57
2019-02-23T01:22:20.902Z,12.13
2019-02-23T01:24:50.379Z,12.37
2019-02-23T01:27:19.680Z,11.23
2019-02-23T01:29:49.118Z,13.13
2019-02-23T01:32:18.580Z,11.97
2019-02-23T01:34:47.959Z,12.53
2019-02-23T01:37:17.252Z,12.40
2019-02-23T01:39:46.681Z,12.10
2019-02-23T01:42:16.028Z,13.17
2019-02-23T01:44:45.552Z,12.87
2019-02-23T01:47:14.865Z,13.47
2019-02-23T01:49:58.616Z,13.37
2019-02-23T01:52:20.151Z,13.27
2019-02-23T01:54:49.486Z,13.70
2019-02-23T01:57:18.772Z,13.63
2019-02-23T01:59:48.092Z,13.70
2019-02-23T02:02:17.576Z,13.63
2019-02-23T02:04:47.558Z,14.00
2019-02-23T02:07:16.884Z,13.60
2019-02-23T02:09:46.371Z,13.20
2019-02-23T02:12:15.719Z,14.17
2019-02-23T02:14:45.225Z,13.13
2019-02-23T02:17:14.897Z,13.03
2019-02-23T02:19:44.188Z,12.67
2019-02-23T02:22:13.503Z,14.63
2019-02-23T02:24:42.888Z,14.37
2019-02-23T02:27:12.260Z,14.07
2019-02-23T02:29:41.697Z,14.47
2019-02-23T02:32:11.166Z,13.47
2019-02-23T02:34:40.519Z,14.07
2019-02-23T02:37:09.840Z,14.10
2019-02-23T02:39:39.951Z,12.73
2019-02-23T02:42:09.276Z,13.70
2019-02-23T02:44:38.596Z,13.67
2019-02-23T02:47:08.056Z,14.67
2019-02-23T02:49:37.553Z,13.87
2019-02-23T02:52:06.730Z,12.67
2019-02-23T02:54:36.086Z,12.90
2019-02-23T02:57:05.392Z,12.43
2019-02-23T02:59:35.743Z,14.10
2019-02-23T03:02:05.077Z,13.73
2019-02-23T03:04:34.464Z,13.43
2019-02-23T03:07:03.829Z,13.17
2019-02-23T03:09:33.997Z,13.87
2019-02-23T03:12:03.305Z,13.87
2019-02-23T03:14:32.603Z,13.00
2019-02-23T03:17:01.983Z,13.67
2019-02-23T03:19:31.259Z,12.63
2019-02-23T03:22:00.537Z,13.37
2019-02-23T03:24:29.778Z,13.13
2019-02-23T03:26:59.106Z,12.90
2019-02-23T03:29:28.527Z,13.70
2019-02-23T03:31:57.873Z,13.90
2019-02-23T03:34:27.212Z,13.83
2019-02-23T03:36:56.641Z,14.33
2019-02-23T03:39:25.940Z,14.53
2019-02-23T03:41:55.228Z,13.63
2019-02-23T03:44:24.559Z,14.20
2019-02-23T03:46:53.861Z,13.90
2019-02-23T03:49:23.151Z,14.43
2019-02-23T03:51:52.540Z,13.80
2019-02-23T03:54:21.908Z,13.60
2019-02-23T03:56:51.280Z,14.30
2019-02-23T03:59:20.604Z,15.97
2019-02-23T04:01:49.955Z,15.90
2019-02-23T04:04:19.311Z,15.03
2019-02-23T04:06:48.640Z,15.40
2019-02-23T04:09:17.915Z,15.53
2019-02-23T04:11:47.207Z,15.93
2019-02-23T04:14:16.500Z,16.30
2019-02-23T04:16:45.873Z,17.37
2019-02-23T04:19:15.232Z,17.80
2019-02-23T04:21:44.591Z,18.03
2019-02-23T04:24:13.917Z,17.40
2019-02-23T04:26:43.284Z,16.33
2019-02-23T04:29:12.652Z,16.63
2019-02-23T04:31:41.936Z,15.60
2019-02-23T04:34:11.278Z,16.73
2019-02-23T04:36:40.589Z,17.80
2019-02-23T04:39:10.059Z,15.87
2019-02-23T04:41:39.406Z,16.50
2019-02-23T04:44:08.696Z,16.13
2019-02-23T04:46:38.125Z,16.57
2019-02-23T04:49:07.524Z,16.23
2019-02-23T04:51:36.876Z,17.23
2019-02-23T04:54:06.244Z,17.13
2019-02-23T04:56:36.526Z,16.07
2019-02-23T04:59:05.903Z,16.80
2019-02-23T05:01:35.702Z,17.90
2019-02-23T05:04:11.688Z,17.67
2019-02-23T05:06:40.995Z,16.97
2019-02-23T05:09:10.320Z,16.57
2019-02-23T05:11:40.334Z,18.13
2019-02-23T05:14:09.678Z,16.57
2019-02-23T05:16:39.089Z,16.30
2019-02-23T05:19:08.454Z,18.33
2019-02-23T05:21:37.722Z,16.97
2019-02-23T05:24:07.115Z,18.27
2019-02-23T05:26:36.456Z,16.73
2019-02-23T05:29:05.840Z,18.77
2019-02-23T05:31:35.185Z,18.13
2019-02-23T05:34:04.508Z,17.07
2019-02-23T05:36:34.695Z,18.17
2019-02-23T05:39:05.284Z,18.50
2019-02-23T05:41:34.710Z,17.87
2019-02-23T05:44:04.028Z,17.03
2019-02-23T05:46:33.352Z,19.17
2019-02-23T05:49:02.648Z,18.43
2019-02-23T05:51:38.787Z,19.23
2019-02-23T05:54:01.382Z,18.13
2019-02-23T05:56:30.713Z,18.90
2019-02-23T05:59:00.051Z,19.07
2019-02-23T06:01:29.353Z,17.57
2019-02-23T06:03:58.734Z,20.62
2019-02-23T06:06:28.048Z,18.10
2019-02-23T06:08:58.401Z,18.20
2019-02-23T06:11:27.812Z,18.67
2019-02-23T06:13:57.097Z,18.30
2019-02-23T06:16:26.465Z,18.20
2019-02-23T06:18:55.772Z,16.47
2019-02-23T06:21:26.180Z,19.50
2019-02-23T06:23:55.524Z,17.97
2019-02-23T06:26:24.821Z,18.67
2019-02-23T06:28:54.116Z,18.70
2019-02-23T06:31:23.510Z,19.13
2019-02-23T06:33:52.795Z,18.20
2019-02-23T06:36:22.082Z,19.20
2019-02-23T06:38:51.488Z,20.43
2019-02-23T06:41:20.833Z,19.77
2019-02-23T06:43:50.192Z,18.80
2019-02-23T06:46:19.496Z,19.33
2019-02-23T06:48:48.925Z,20.40
2019-02-23T06:51:18.192Z,17.63
2019-02-23T06:53:47.567Z,19.90
2019-02-23T06:56:16.877Z,17.90
2019-02-23T06:58:46.185Z,19.57
2019-02-23T07:01:15.565Z,21.53
2019-02-23T07:03:51.581Z,19.20
2019-02-23T07:06:21.966Z,21.13
2019-02-23T07:08:51.831Z,21.17
2019-02-23T07:11:21.181Z,21.13
2019-02-23T07:13:57.136Z,19.07
2019-02-23T07:16:26.465Z,20.93
2019-02-23T07:18:55.766Z,19.10
2019-02-23T07:21:25.149Z,20.07
2019-02-23T07:23:54.556Z,21.57
2019-02-23T07:26:23.888Z,21.67
2019-02-23T07:28:53.662Z,19.80
2019-02-23T07:31:22.992Z,19.67
2019-02-23T07:33:52.324Z,21.57
2019-02-23T07:36:21.737Z,19.53
2019-02-23T07:38:51.093Z,20.60
2019-02-23T07:41:20.412Z,20.00
2019-02-23T07:43:49.773Z,22.33
2019-02-23T07:46:19.072Z,22.03
2019-02-23T07:48:48.417Z,20.33
2019-02-23T07:51:17.906Z,19.73
2019-02-23T07:53:47.235Z,21.37
2019-02-23T07:56:16.515Z,20.30
2019-02-23T07:58:45.824Z,25.33
2019-02-23T08:01:15.143Z,19.23
2019-02-23T08:03:44.477Z,18.80
2019-02-23T08:06:13.824Z,22.90
2019-02-23T08:08:43.143Z,19.57
2019-02-23T08:11:12.509Z,19.73
2019-02-23T08:13:41.855Z,21.80
2019-02-23T08:16:12.193Z,20.37
2019-02-23T08:18:41.552Z,19.30
2019-02-23T08:21:10.912Z,20.80
2019-02-23T08:23:40.956Z,18.67
2019-02-23T08:26:10.378Z,18.80
2019-02-23T08:28:39.852Z,19.13
2019-02-23T08:31:09.195Z,17.67
2019-02-23T08:33:38.520Z,17.70
2019-02-23T08:36:07.931Z,18.90
2019-02-23T08:38:37.892Z,18.27
2019-02-23T08:41:07.167Z,18.20
2019-02-23T08:43:36.485Z,17.87
2019-02-23T08:46:05.848Z,18.33
2019-02-23T08:48:35.982Z,18.50
2019-02-23T08:51:05.310Z,18.17
2019-02-23T08:53:34.648Z,18.77
2019-02-23T08:56:04.031Z,18.67
2019-02-23T08:58:33.372Z,18.20
2019-02-23T09:01:02.750Z,17.57
2019-02-23T09:03:32.257Z,18.03
2019-02-23T09:06:02.152Z,18.97
2019-02-23T09:08:32.172Z,17.90
2019-02-23T09:11:02.101Z,17.93
2019-02-23T09:13:31.456Z,17.40
2019-02-23T09:16:00.779Z,18.17
2019-02-23T09:18:30.156Z,18.90
2019-02-23T09:20:59.568Z,18.77
2019-02-23T09:23:28.909Z,17.73
2019-02-23T09:25:58.193Z,18.50
2019-02-23T09:28:27.505Z,19.00
2019-02-23T09:30:56.872Z,18.33
2019-02-23T09:33:26.183Z,18.10
2019-02-23T09:35:55.483Z,16.97
2019-02-23T09:38:24.787Z,17.63
2019-02-23T09:40:54.116Z,17.60
2019-02-23T09:43:23.437Z,17.37
2019-02-23T09:45:52.724Z,17.87
2019-02-23T09:48:22.063Z,16.57
2019-02-23T09:50:52.020Z,16.93
2019-02-23T09:53:21.499Z,17.53
2019-02-23T09:55:50.868Z,16.30
2019-02-23T09:58:21.152Z,15.97
2019-02-23T10:00:50.546Z,16.83
2019-02-23T10:03:19.925Z,16.67
2019-02-23T10:05:49.273Z,17.37
2019-02-23T10:08:18.660Z,16.67
2019-02-23T10:10:48.109Z,16.60
2019-02-23T10:13:17.449Z,17.10
2019-02-23T10:15:46.795Z,16.97
2019-02-23T10:18:16.109Z,17.90
2019-02-23T10:20:45.460Z,17.70
2019-02-23T10:23:22.111Z,15.47
2019-02-23T10:25:44.168Z,15.90
2019-02-23T10:28:13.554Z,18.07
2019-02-23T10:30:43.017Z,16.17
2019-02-23T10:33:12.406Z,15.87
2019-02-23T10:35:41.812Z,14.93
2019-02-23T10:38:11.117Z,14.63
2019-02-23T10:40:40.459Z,13.87
2019-02-23T10:43:10.477Z,15.87
2019-02-23T10:45:39.893Z,13.80
2019-02-23T10:48:09.348Z,13.97
2019-02-23T10:50:38.717Z,15.27
2019-02-23T10:53:08.040Z,14.67
2019-02-23T10:55:37.398Z,14.63
2019-02-23T10:58:06.812Z,14.57
2019-02-23T11:00:36.104Z,14.40
2019-02-23T11:03:05.492Z,14.30
2019-02-23T11:05:34.844Z,14.33
2019-02-23T11:08:04.216Z,14.33
2019-02-23T11:10:33.582Z,14.53
2019-02-23T11:13:02.954Z,13.50
2019-02-23T11:15:32.257Z,12.60
2019-02-23T11:18:03.414Z,12.77
2019-02-23T11:20:32.923Z,12.87
2019-02-23T11:23:02.270Z,12.00
2019-02-23T11:25:31.572Z,12.47
2019-02-23T11:28:01.096Z,12.60
2019-02-23T11:30:30.412Z,12.40
2019-02-23T11:32:59.732Z,12.80
2019-02-23T11:35:29.061Z,11.83
2019-02-23T11:37:58.384Z,12.90
2019-02-23T11:40:28.356Z,12.70
2019-02-23T11:42:57.735Z,13.07
2019-02-23T11:45:27.375Z,11.67
2019-02-23T11:47:56.740Z,18.13
2019-02-23T11:50:26.045Z,13.70
2019-02-23T11:52:55.329Z,12.23
2019-02-23T11:55:24.704Z,12.07
2019-02-23T11:57:54.007Z,14.47
2019-02-23T12:00:23.597Z,16.17
2019-02-23T12:02:53.050Z,22.23
2019-02-23T12:05:22.378Z,11.23
2019-02-23T12:07:51.765Z,11.30
2019-02-23T12:10:21.063Z,11.00
2019-02-23T12:12:50.444Z,10.97
2019-02-23T12:15:19.780Z,10.63
2019-02-23T12:17:49.105Z,10.87
2019-02-23T12:20:18.446Z,10.77
2019-02-23T12:22:47.804Z,10.60
2019-02-23T12:25:17.841Z,9.93
2019-02-23T12:27:47.693Z,9.97
2019-02-23T12:30:17.008Z,10.20
2019-02-23T12:32:46.407Z,9.90
2019-02-23T12:35:15.768Z,9.60
2019-02-23T12:37:45.089Z,9.73
2019-02-23T12:40:14.585Z,9.23
2019-02-23T12:42:43.944Z,9.83
2019-02-23T12:45:13.372Z,9.60
2019-02-23T12:47:42.763Z,9.47
2019-02-23T12:50:12.351Z,9.53
2019-02-23T12:52:41.672Z,9.27
2019-02-23T12:55:11.088Z,9.83
2019-02-23T12:57:40.444Z,10.70
2019-02-23T13:00:12.171Z,10.60
2019-02-23T13:02:41.496Z,9.37
2019-02-23T13:05:10.825Z,10.03
2019-02-23T13:07:40.589Z,9.20
2019-02-23T13:10:11.482Z,10.40
2019-02-23T13:12:56.905Z,10.40
2019-02-23T13:15:44.179Z,10.17
2019-02-23T13:21:16.969Z,10.43
2019-02-23T13:26:03.669Z,10.53
2019-02-23T13:28:44.902Z,10.57
2019-02-23T13:31:47.400Z,10.17
2019-02-23T13:35:39.025Z,10.27
2019-02-23T13:42:30.412Z,9.73
2019-02-23T13:45:13.208Z,9.57
2019-02-23T13:48:40.310Z,9.60
2019-02-23T13:54:38.656Z,9.80
2019-02-23T14:00:27.882Z,9.13
2019-02-23T14:05:17.782Z,10.10
2019-02-23T14:10:09.525Z,10.00
2019-02-23T14:12:55.845Z,10.50
2019-02-23T14:16:35.119Z,10.07
2019-02-23T14:20:09.451Z,10.00
2019-02-23T14:25:01.173Z,10.43
2019-02-23T14:32:01.820Z,10.00
2019-02-23T14:35:22.235Z,9.87
2019-02-23T14:39:07.059Z,9.20
2019-02-23T14:41:56.211Z,10.23
2019-02-23T14:44:43.531Z,10.07
2019-02-23T14:49:40.133Z,10.17
2019-02-23T14:52:34.726Z,9.37
2019-02-23T14:55:29.670Z,9.60
2019-02-23T14:58:35.136Z,9.83
2019-02-23T15:01:18.930Z,9.13
2019-02-23T15:06:13.647Z,9.63
2019-02-23T15:11:20.551Z,9.07
2019-02-23T15:16:17.155Z,10.20
2019-02-23T15:19:29.785Z,10.20
2019-02-23T15:24:52.188Z,8.77
2019-02-23T15:27:45.379Z,9.53
2019-02-23T15:30:40.272Z,10.73
2019-02-23T15:33:56.881Z,9.40
2019-02-23T15:36:43.466Z,10.03
2019-02-23T15:41:45.313Z,10.13
2019-02-23T15:46:41.981Z,9.80
2019-02-23T15:49:27.703Z,9.60
2019-02-23T15:51:57.159Z,10.70
2019-02-23T15:54:29.120Z,10.73
2019-02-23T15:56:55.881Z,11.50
2019-02-23T15:59:25.334Z,10.33
2019-02-23T16:01:54.705Z,10.97
2019-02-23T16:04:24.160Z,11.90
2019-02-23T16:06:53.582Z,10.63
2019-02-23T16:09:22.944Z,12.03
2019-02-23T16:11:52.285Z,11.07
2019-02-23T16:14:21.613Z,10.70
2019-02-23T16:16:51.554Z,11.20
2019-02-23T16:19:21.876Z,11.23
2019-02-23T16:21:52.942Z,11.10
2019-02-23T16:24:21.847Z,11.00
2019-02-23T16:26:51.144Z,11.33
2019-02-23T16:29:20.520Z,11.60
2019-02-23T16:31:49.923Z,12.03
2019-02-23T16:34:19.367Z,11.33
2019-02-23T16:36:48.684Z,11.93
2019-02-23T16:39:18.596Z,11.37
2019-02-23T16:41:48.073Z,12.00
2019-02-23T16:44:17.439Z,13.77
2019-02-23T16:46:46.776Z,13.50
2019-02-23T16:49:16.224Z,14.00
2019-02-23T16:51:45.492Z,13.73
2019-02-23T16:54:14.809Z,13.17
2019-02-23T16:56:44.190Z,18.87
2019-02-23T16:59:13.575Z,12.43
2019-02-23T17:01:42.959Z,11.73
2019-02-23T17:04:12.400Z,11.80
2019-02-23T17:06:41.789Z,11.67
2019-02-23T17:09:11.109Z,12.67
2019-02-23T17:11:40.516Z,11.47
2019-02-23T17:14:09.944Z,11.50
2019-02-23T17:16:39.280Z,11.33
2019-02-23T17:19:08.584Z,13.40
2019-02-23T17:21:37.890Z,11.77
2019-02-23T17:24:07.195Z,10.83
2019-02-23T17:26:36.976Z,11.40
2019-02-23T17:29:05.898Z,11.40
2019-02-23T17:31:35.227Z,11.63
2019-02-23T17:34:04.599Z,10.93
2019-02-23T17:36:33.908Z,13.07
2019-02-23T17:39:03.324Z,11.60
2019-02-23T17:41:32.662Z,11.40
2019-02-23T17:44:02.050Z,11.87
2019-02-23T17:46:31.376Z,11.70
2019-02-23T17:49:01.558Z,11.70
2019-02-23T17:51:30.919Z,12.33
2019-02-23T17:54:00.278Z,12.40
2019-02-23T17:56:30.153Z,12.43
2019-02-23T17:58:59.455Z,12.78
2019-02-23T18:01:28.898Z,13.17
2019-02-23T18:03:58.236Z,14.07
2019-02-23T18:06:27.560Z,11.97
2019-02-23T18:08:56.984Z,14.30
2019-02-23T18:11:26.311Z,12.67
2019-02-23T18:13:56.928Z,12.20
2019-02-23T18:16:26.188Z,12.17
2019-02-23T18:18:55.483Z,13.47
2019-02-23T18:21:24.930Z,13.03
2019-02-23T18:23:54.230Z,13.03
2019-02-23T18:26:23.589Z,14.60
2019-02-23T18:28:52.942Z,13.78
2019-02-23T18:31:22.304Z,13.97
2019-02-23T18:33:51.648Z,14.03
2019-02-23T18:36:20.980Z,13.50
2019-02-23T18:38:50.774Z,14.87
2019-02-23T18:41:20.137Z,13.43
2019-02-23T18:43:49.439Z,13.27
2019-02-23T18:46:18.756Z,12.23
2019-02-23T18:48:48.097Z,12.83
2019-02-23T18:51:17.376Z,13.97
2019-02-23T18:53:46.739Z,14.83
2019-02-23T18:56:16.119Z,15.00
2019-02-23T18:58:45.440Z,13.27
2019-02-23T19:01:14.810Z,12.77
2019-02-23T19:03:44.163Z,13.80
2019-02-23T19:06:13.501Z,13.23
2019-02-23T19:08:42.876Z,13.90
2019-02-23T19:11:12.328Z,15.63
2019-02-23T19:13:42.285Z,13.07
2019-02-23T19:16:11.567Z,12.40
2019-02-23T19:18:40.913Z,13.87
2019-02-23T19:21:10.285Z,13.47
2019-02-23T19:23:39.611Z,12.50
2019-02-23T19:26:08.948Z,14.73
2019-02-23T19:28:43.183Z,14.37
2019-02-23T19:31:07.643Z,12.80
2019-02-23T19:33:37.020Z,14.70
2019-02-23T19:36:06.319Z,13.40
2019-02-23T19:38:35.659Z,18.47
2019-02-23T19:41:04.978Z,13.97
2019-02-23T19:43:34.939Z,13.90
2019-02-23T19:46:04.279Z,12.63
2019-02-23T19:48:33.593Z,12.83
2019-02-23T19:51:06.836Z,12.20
2019-02-23T19:53:36.184Z,12.83
2019-02-23T19:56:05.520Z,12.87
2019-02-23T19:58:34.806Z,12.27
2019-02-23T20:01:04.138Z,12.60
2019-02-23T20:03:33.456Z,13.47
2019-02-23T20:06:02.839Z,12.97
2019-02-23T20:08:32.579Z,13.23
2019-02-23T20:11:01.887Z,13.33
2019-02-23T20:13:31.216Z,14.13
2019-02-23T20:16:00.591Z,13.17
2019-02-23T20:18:29.863Z,14.87
2019-02-23T20:20:59.232Z,13.17
2019-02-23T20:23:28.500Z,15.67
2019-02-23T20:25:57.842Z,11.53
2019-02-23T20:28:27.291Z,13.30
2019-02-23T20:30:56.664Z,15.27
2019-02-23T20:33:25.971Z,13.87
2019-02-23T20:35:55.327Z,13.63
2019-02-23T20:38:24.624Z,13.00
2019-02-23T20:40:53.968Z,16.03
2019-02-23T20:43:23.285Z,15.00
2019-02-23T20:45:52.591Z,14.17
2019-02-23T20:48:21.940Z,13.33
2019-02-23T20:50:52.188Z,14.13
2019-02-23T20:53:21.588Z,14.60
2019-02-23T20:55:51.800Z,14.37
2019-02-23T20:58:21.138Z,13.93
2019-02-23T21:00:50.488Z,14.60
2019-02-23T21:03:20.615Z,13.90
2019-02-23T21:05:50.009Z,14.17
2019-02-23T21:08:19.324Z,13.93
2019-02-23T21:10:48.597Z,13.73
2019-02-23T21:13:17.905Z,14.00
2019-02-23T21:15:47.188Z,13.47
2019-02-23T21:18:16.480Z,13.40
2019-02-23T21:20:45.884Z,14.47
2019-02-23T21:23:15.208Z,14.93
2019-02-23T21:25:45.152Z,13.47
2019-02-23T21:28:14.431Z,15.00
2019-02-23T21:30:43.759Z,14.37
2019-02-23T21:33:13.043Z,14.70
2019-02-23T21:35:42.355Z,13.60
2019-02-23T21:38:11.889Z,17.33
2019-02-23T21:40:41.232Z,13.87
2019-02-23T21:43:10.579Z,18.47
2019-02-23T21:45:40.088Z,14.37
2019-02-23T21:48:09.414Z,13.80
2019-02-23T21:50:38.691Z,13.60
2019-02-23T21:53:08.054Z,13.40
2019-02-23T21:55:37.452Z,17.80
2019-02-23T21:58:06.737Z,13.60
2019-02-23T22:00:36.111Z,16.60
2019-02-23T22:03:07.081Z,17.53
2019-02-23T22:05:35.509Z,15.67
2019-02-23T22:08:04.910Z,14.23
2019-02-23T22:10:34.244Z,15.23
2019-02-23T22:13:03.634Z,16.27
2019-02-23T22:18:11.962Z,16.00
2019-02-23T22:20:41.316Z,15.80
2019-02-23T22:23:10.709Z,15.07
2019-02-23T22:25:40.043Z,16.97
2019-02-23T22:28:09.532Z,14.30
2019-02-23T22:30:38.829Z,14.07
2019-02-23T22:33:11.189Z,16.77
2019-02-23T22:35:40.636Z,15.50
2019-02-23T22:38:09.985Z,15.30
2019-02-23T22:40:39.304Z,17.00
2019-02-23T22:43:08.645Z,15.43
2019-02-23T22:45:38.010Z,14.60
2019-02-23T22:48:08.140Z,13.97
2019-02-23T22:50:37.540Z,14.87
2019-02-23T22:53:06.965Z,15.43
2019-02-23T22:55:36.276Z,16.70
2019-02-23T22:58:05.636Z,14.07
2019-02-23T23:00:41.129Z,15.47
2019-02-23T23:03:10.492Z,14.67
2019-02-23T23:05:39.848Z,12.67
2019-02-23T23:08:09.838Z,13.40
2019-02-23T23:10:39.140Z,14.67
2019-02-23T23:13:08.521Z,13.90
2019-02-23T23:15:38.758Z,13.40
2019-02-23T23:18:08.124Z,15.63
2019-02-23T23:20:37.512Z,12.67
2019-02-23T23:23:07.832Z,11.87
2019-02-23T23:25:37.195Z,12.97
2019-02-23T23:28:06.485Z,12.27
2019-02-23T23:30:35.977Z,12.17
2019-02-23T23:33:05.309Z,11.97
2019-02-23T23:35:36.210Z,11.50
2019-02-23T23:38:05.761Z,12.07
2019-02-23T23:40:35.074Z,13.67
2019-02-23T23:43:05.343Z,12.80
2019-02-23T23:45:34.606Z,12.23
2019-02-23T23:48:03.864Z,11.97
2019-02-23T23:50:33.214Z,12.57
2019-02-23T23:53:03.300Z,12.43
2019-02-23T23:55:32.616Z,11.97
2019-02-23T23:58:01.992Z,13.10
